createdAt,value
2023-02-12T00:00:58.725Z,100992.97
2023-02-12T00:03:26.788Z,100967.31
2023-02-12T00:05:56.432Z,100988.75
2023-02-12T00:08:24.354Z,100992.97
2023-02-12T00:10:52.268Z,100983.56
2023-02-12T00:13:20.189Z,100982.94
2023-02-12T00:15:48.113Z,100988.38
2023-02-12T00:18:16.116Z,100986.53
2023-02-12T00:20:44.014Z,100999.63
2023-02-12T00:23:13.257Z,100997.16
2023-02-12T00:25:43.093Z,100998.78
2023-02-12T00:28:11.239Z,101002.84
2023-02-12T00:30:39.247Z,101006.06
2023-02-12T00:33:07.199Z,101002.84
2023-02-12T00:35:35.048Z,101009.78
2023-02-12T00:38:02.880Z,101016.69
2023-02-12T00:40:32.812Z,101012.22
2023-02-12T00:43:00.771Z,101020.72
2023-02-12T00:45:28.710Z,101017.63
2023-02-12T00:47:56.645Z,101010.34
2023-02-12T00:50:24.736Z,101007.13
2023-02-12T00:52:52.663Z,101009.47
2023-02-12T00:55:20.601Z,101011.94
2023-02-12T00:57:49.877Z,101011.44
2023-02-12T01:00:18.202Z,101021.56
2023-02-12T01:02:46.055Z,101022.69
2023-02-12T01:05:14.042Z,101010.44
2023-02-12T01:07:41.912Z,101016.38
2023-02-12T01:10:11.114Z,100996.72
2023-02-12T01:12:38.963Z,101013.03
2023-02-12T01:15:10.421Z,101028.31
2023-02-12T01:17:38.373Z,101027.44
2023-02-12T01:20:08.701Z,101017.09
2023-02-12T01:22:37.649Z,101020.78
2023-02-12T01:25:06.208Z,101026.59
2023-02-12T01:27:34.768Z,101030.91
2023-02-12T01:30:02.718Z,101022.97
2023-02-12T01:32:32.345Z,101029.66
2023-02-12T01:35:00.502Z,101028.91
2023-02-12T01:37:28.460Z,101027.41
2023-02-12T01:39:57.468Z,101030.13
2023-02-12T01:42:25.378Z,101027.13
2023-02-12T01:45:44.150Z,101044.41
2023-02-12T01:48:14.536Z,101040.38
2023-02-12T01:50:45.121Z,101025.06
2023-02-12T01:53:20.049Z,101038.59
2023-02-12T01:55:54.641Z,101033.97
2023-02-12T01:58:25.086Z,101035.94
2023-02-12T02:00:53.431Z,101040.72
2023-02-12T02:03:22.922Z,101037.69
2023-02-12T02:05:56.868Z,101034.81
2023-02-12T02:08:24.934Z,101034.72
2023-02-12T02:10:52.776Z,101041.78
2023-02-12T02:13:39.142Z,101041.59
2023-02-12T02:16:15.146Z,101038.13
2023-02-12T02:18:54.135Z,101032.59
2023-02-12T02:21:51.267Z,101037.94
2023-02-12T02:24:48.588Z,101035.91
2023-02-12T02:27:21.470Z,101036.53
2023-02-12T02:30:34.763Z,101048.66
2023-02-12T02:33:23.204Z,101051.13
2023-02-12T02:35:59.098Z,101056.94
2023-02-12T02:38:35.606Z,101039.47
2023-02-12T02:41:07.831Z,101031.50
2023-02-12T02:43:39.552Z,101062.00
2023-02-12T02:46:14.111Z,101046.03
2023-02-12T02:48:47.637Z,101044.00
2023-02-12T02:51:20.157Z,101049.94
2023-02-12T02:53:52.630Z,101057.84
2023-02-12T02:56:24.124Z,101058.47
2023-02-12T02:58:57.026Z,101056.25
2023-02-12T03:01:32.344Z,101068.13
2023-02-12T03:04:04.540Z,101070.72
2023-02-12T03:06:40.104Z,101086.66
2023-02-12T03:09:16.218Z,101081.84
2023-02-12T03:11:44.152Z,101083.69
2023-02-12T03:14:17.407Z,101072.19
2023-02-12T03:16:55.382Z,101075.41
2023-02-12T03:19:26.838Z,101085.13
2023-02-12T03:22:01.297Z,101094.41
2023-02-12T03:24:36.087Z,101087.59
2023-02-12T03:27:08.714Z,101104.22
2023-02-12T03:29:36.989Z,101097.78
2023-02-12T03:32:20.212Z,101088.94
2023-02-12T03:34:52.281Z,101109.16
2023-02-12T03:37:27.997Z,101114.84
2023-02-12T03:40:05.982Z,101125.84
2023-02-12T03:42:37.403Z,101122.47
2023-02-12T03:45:11.289Z,101130.13
2023-02-12T03:47:49.499Z,101117.00
2023-02-12T03:50:21.840Z,101118.72
2023-02-12T03:52:51.718Z,101126.38
2023-02-12T03:55:19.788Z,101130.72
2023-02-12T03:57:52.541Z,101137.53
2023-02-12T04:00:23.080Z,101143.66
2023-02-12T04:02:54.498Z,101145.38
2023-02-12T04:05:24.579Z,101143.66
2023-02-12T04:07:54.674Z,101142.78
2023-02-12T04:10:25.849Z,101141.94
2023-02-12T04:12:58.266Z,101143.41
2023-02-12T04:15:44.742Z,101160.75
2023-02-12T04:18:20.519Z,101164.97
2023-02-12T04:20:56.774Z,101163.22
2023-02-12T04:23:42.222Z,101149.78
2023-02-12T04:26:17.354Z,101148.44
2023-02-12T04:28:58.945Z,101157.34
2023-02-12T04:31:34.438Z,101165.16
2023-02-12T04:34:11.451Z,101164.84
2023-02-12T04:36:46.599Z,101174.72
2023-02-12T04:39:21.171Z,101188.94
2023-02-12T04:41:49.630Z,101193.25
2023-02-12T04:44:20.631Z,101182.59
2023-02-12T04:46:48.453Z,101166.31
2023-02-12T04:49:20.150Z,101184.34
2023-02-12T04:51:49.451Z,101192.63
2023-02-12T04:54:19.286Z,101183.34
2023-02-12T04:56:47.267Z,101189.16
2023-02-12T04:59:15.528Z,101201.78
2023-02-12T05:01:44.336Z,101206.34
2023-02-12T05:04:13.977Z,101199.78
2023-02-12T05:06:44.566Z,101208.84
2023-02-12T05:09:15.350Z,101216.38
2023-02-12T05:11:43.646Z,101209.06
2023-02-12T05:14:11.912Z,101215.88
2023-02-12T05:16:39.877Z,101211.25
2023-02-12T05:19:09.381Z,101218.19
2023-02-12T05:21:38.030Z,101220.03
2023-02-12T05:24:07.797Z,101229.44
2023-02-12T05:26:35.918Z,101205.00
2023-02-12T05:29:04.366Z,101236.34
2023-02-12T05:31:32.397Z,101231.28
2023-02-12T05:34:00.449Z,101241.69
2023-02-12T05:36:28.576Z,101252.34
2023-02-12T05:38:59.420Z,101248.13
2023-02-12T05:41:29.115Z,101247.66
2023-02-12T05:43:56.976Z,101247.66
2023-02-12T05:46:24.915Z,101249.16
2023-02-12T05:48:52.850Z,101254.50
2023-02-12T05:51:23.039Z,101258.34
2023-02-12T05:53:52.187Z,101272.09
2023-02-12T05:56:22.388Z,101266.03
2023-02-12T05:58:54.627Z,101270.97
2023-02-12T06:01:24.642Z,101272.47
2023-02-12T06:03:52.758Z,101279.63
2023-02-12T06:06:20.746Z,101284.84
2023-02-12T06:08:49.688Z,101283.34
2023-02-12T06:11:19.321Z,101267.50
2023-02-12T06:13:47.753Z,101297.59
2023-02-12T06:16:22.450Z,101286.53
2023-02-12T06:18:50.957Z,101290.97
2023-02-12T06:21:20.111Z,101296.06
2023-02-12T06:23:48.582Z,101314.25
2023-02-12T06:26:17.033Z,101319.22
2023-02-12T06:28:45.010Z,101306.09
2023-02-12T06:31:22.557Z,101295.94
2023-02-12T06:33:51.228Z,101291.34
2023-02-12T06:36:19.542Z,101290.16
2023-02-12T06:38:47.800Z,101308.72
2023-02-12T06:41:16.117Z,101316.03
2023-02-12T06:43:44.062Z,101308.38
2023-02-12T06:46:12.198Z,101339.06
2023-02-12T06:48:41.869Z,101353.03
2023-02-12T06:51:12.443Z,101355.66
2023-02-12T06:53:40.340Z,101362.56
2023-02-12T06:56:11.446Z,101350.53
2023-02-12T06:58:40.352Z,101356.22
2023-02-12T07:01:13.776Z,101358.63
2023-02-12T07:03:44.021Z,101357.00
2023-02-12T07:06:11.961Z,101360.06
2023-02-12T07:08:40.185Z,101370.47
2023-02-12T07:11:08.936Z,101376.88
2023-02-12T07:13:36.999Z,101373.91
2023-02-12T07:16:06.750Z,101373.28
2023-02-12T07:18:35.097Z,101367.22
2023-02-12T07:21:05.617Z,101377.56
2023-02-12T07:23:33.813Z,101378.69
2023-02-12T07:26:03.705Z,101382.41
2023-02-12T07:28:33.617Z,101383.25
2023-02-12T07:31:02.080Z,101388.47
2023-02-12T07:33:30.044Z,101394.66
2023-02-12T07:36:01.194Z,101391.19
2023-02-12T07:38:31.101Z,101392.81
2023-02-12T07:41:10.441Z,101390.09
2023-02-12T07:43:38.870Z,101400.63
2023-02-12T07:46:08.692Z,101399.63
2023-02-12T07:48:36.746Z,101401.16
2023-02-12T07:51:06.638Z,101404.38
2023-02-12T07:53:36.874Z,101399.63
2023-02-12T07:56:10.022Z,101400.50
2023-02-12T07:58:38.197Z,101400.63
2023-02-12T08:01:18.027Z,101403.84
2023-02-12T08:03:46.319Z,101405.81
2023-02-12T08:06:15.882Z,101409.41
2023-02-12T08:08:45.428Z,101403.34
2023-02-12T08:11:14.999Z,101407.91
2023-02-12T08:13:43.166Z,101411.50
2023-02-12T08:16:13.248Z,101414.56
2023-02-12T08:18:41.364Z,101413.19
2023-02-12T08:21:11.225Z,101417.34
2023-02-12T08:23:39.641Z,101428.81
2023-02-12T08:26:14.160Z,101440.31
2023-02-12T08:28:44.238Z,101430.75
2023-02-12T08:31:14.206Z,101444.16
2023-02-12T08:33:42.059Z,101443.63
2023-02-12T08:36:12.149Z,101441.13
2023-02-12T08:38:41.272Z,101447.50
2023-02-12T08:41:12.760Z,101427.81
2023-02-12T08:43:43.465Z,101430.53
2023-02-12T08:46:15.140Z,101437.09
2023-02-12T08:48:44.194Z,101432.25
2023-02-12T08:51:14.414Z,101426.38
2023-02-12T08:53:43.946Z,101441.09
2023-02-12T08:56:15.310Z,101443.28
2023-02-12T08:58:43.896Z,101443.34
2023-02-12T09:01:14.028Z,101441.66
2023-02-12T09:03:41.933Z,101454.66
2023-02-12T09:06:10.372Z,101455.31
2023-02-12T09:08:39.472Z,101469.19
2023-02-12T09:11:08.223Z,101468.50
2023-02-12T09:13:37.886Z,101469.06
2023-02-12T09:16:06.944Z,101469.06
2023-02-12T09:18:36.092Z,101470.28
2023-02-12T09:21:06.543Z,101484.63
2023-02-12T09:23:34.615Z,101486.38
2023-02-12T09:26:06.086Z,101483.13
2023-02-12T09:28:34.460Z,101492.53
2023-02-12T09:31:07.758Z,101473.09
2023-02-12T09:33:36.182Z,101470.59
2023-02-12T09:36:04.665Z,101497.00
2023-02-12T09:38:33.107Z,101497.34
2023-02-12T09:41:48.724Z,101504.13
2023-02-12T09:44:23.569Z,101496.47
2023-02-12T09:46:57.720Z,101511.91
2023-02-12T09:49:51.000Z,101509.31
2023-02-12T09:52:21.309Z,101514.28
2023-02-12T09:54:50.590Z,101507.19
2023-02-12T09:57:22.784Z,101524.06
2023-02-12T09:59:55.562Z,101506.53
2023-02-12T10:02:25.490Z,101509.53
2023-02-12T10:05:01.596Z,101526.88
2023-02-12T10:07:41.724Z,101525.34
2023-02-12T10:10:24.501Z,101526.22
2023-02-12T10:12:57.877Z,101518.34
2023-02-12T10:15:36.381Z,101523.53
2023-02-12T10:18:21.303Z,101521.81
2023-02-12T10:21:12.869Z,101506.34
2023-02-12T10:23:59.956Z,101518.25
2023-02-12T10:26:31.785Z,101508.63
2023-02-12T10:29:10.247Z,101496.63
2023-02-12T10:31:41.827Z,101513.50
2023-02-12T10:34:18.999Z,101517.28
2023-02-12T10:36:49.112Z,101522.47
2023-02-12T10:39:22.829Z,101522.69
2023-02-12T10:41:57.333Z,101526.38
2023-02-12T10:44:25.297Z,101524.13
2023-02-12T10:46:53.168Z,101537.50
2023-02-12T10:49:22.694Z,101528.63
2023-02-12T10:52:03.455Z,101547.78
2023-02-12T10:54:36.833Z,101546.59
2023-02-12T10:57:16.135Z,101536.66
2023-02-12T10:59:45.621Z,101539.91
2023-02-12T11:02:22.858Z,101540.53
2023-02-12T11:04:52.599Z,101535.13
2023-02-12T11:07:21.438Z,101528.41
2023-02-12T11:09:51.514Z,101516.41
2023-02-12T11:12:24.424Z,101519.09
2023-02-12T11:14:55.070Z,101515.84
2023-02-12T11:17:27.011Z,101506.75
2023-02-12T11:20:20.565Z,101506.75
2023-02-12T11:22:53.446Z,101506.75
2023-02-12T11:25:22.306Z,101503.19
2023-02-12T11:28:06.822Z,101505.13
2023-02-12T11:30:35.392Z,101498.53
2023-02-12T11:33:24.877Z,101508.50
2023-02-12T11:35:57.544Z,101514.34
2023-02-12T11:38:31.670Z,101496.81
2023-02-12T11:41:08.187Z,101497.03
2023-02-12T11:43:39.475Z,101498.31
2023-02-12T11:46:09.381Z,101511.63
2023-02-12T11:48:40.401Z,101492.00
2023-02-12T11:51:19.296Z,101476.66
2023-02-12T11:53:52.733Z,101497.84
2023-02-12T11:56:21.684Z,101497.88
2023-02-12T11:58:51.039Z,101495.28
2023-02-12T12:01:23.061Z,101502.44
2023-02-12T12:03:59.868Z,101511.75
2023-02-12T12:06:35.830Z,101505.88
2023-02-12T12:09:08.374Z,101509.44
2023-02-12T12:11:42.635Z,101516.03
2023-02-12T12:14:18.944Z,101508.50
2023-02-12T12:17:13.810Z,101498.06
2023-02-12T12:19:54.410Z,101501.09
2023-02-12T12:22:37.529Z,101497.19
2023-02-12T12:25:17.288Z,101496.53
2023-02-12T12:28:05.841Z,101488.19
2023-02-12T12:30:48.990Z,101496.94
2023-02-12T12:33:21.350Z,101481.66
2023-02-12T12:36:01.089Z,101484.72
2023-02-12T12:38:42.357Z,101488.59
2023-02-12T12:41:22.464Z,101476.25
2023-02-12T12:44:02.970Z,101496.69
2023-02-12T12:46:37.994Z,101489.69
2023-02-12T12:49:20.185Z,101487.09
2023-02-12T12:52:10.986Z,101485.84
2023-02-12T12:54:58.342Z,101486.16
2023-02-12T12:57:38.195Z,101480.94
2023-02-12T13:00:47.925Z,101492.34
2023-02-12T13:03:52.858Z,101492.75
2023-02-12T13:06:33.194Z,101498.59
2023-02-12T13:09:15.159Z,101489.91
2023-02-12T13:11:55.262Z,101493.38
2023-02-12T13:14:37.793Z,101506.25
2023-02-12T13:17:12.744Z,101514.13
2023-02-12T13:19:53.068Z,101504.72
2023-02-12T13:22:26.408Z,101497.06
2023-02-12T13:25:01.772Z,101498.31
2023-02-12T13:27:34.533Z,101493.81
2023-02-12T13:30:07.080Z,101501.75
2023-02-12T13:32:43.271Z,101502.63
2023-02-12T13:35:17.706Z,101497.34
2023-02-12T13:37:49.586Z,101492.94
2023-02-12T13:40:19.942Z,101500.63
2023-02-12T13:42:56.810Z,101501.19
2023-02-12T13:45:42.630Z,101497.44
2023-02-12T13:48:25.407Z,101492.47
2023-02-12T13:51:02.270Z,101486.13
2023-02-12T13:53:47.035Z,101482.16
2023-02-12T13:56:32.845Z,101501.00
2023-02-12T13:59:02.406Z,101493.31
2023-02-12T14:01:41.842Z,101483.81
2023-02-12T14:04:28.354Z,101490.72
2023-02-12T14:07:01.159Z,101491.41
2023-02-12T14:09:40.537Z,101484.97
2023-02-12T14:12:12.711Z,101482.47
2023-02-12T14:14:45.182Z,101482.25
2023-02-12T14:17:42.926Z,101501.47
2023-02-12T14:20:28.731Z,101490.72
2023-02-12T14:23:21.924Z,101495.09
2023-02-12T14:25:58.785Z,101492.97
2023-02-12T14:28:35.462Z,101499.75
2023-02-12T14:31:33.061Z,101494.94
2023-02-12T14:34:39.052Z,101525.47
2023-02-12T14:37:33.164Z,101509.84
2023-02-12T14:40:40.596Z,101507.81
2023-02-12T14:43:34.006Z,101519.69
2023-02-12T14:46:35.276Z,101519.47
2023-02-12T14:49:06.083Z,101514.94
2023-02-12T14:51:37.989Z,101523.28
2023-02-12T14:54:14.584Z,101522.78
2023-02-12T14:56:47.578Z,101525.81
2023-02-12T14:59:19.159Z,101528.97
2023-02-12T15:01:48.479Z,101529.09
2023-02-12T15:04:25.239Z,101529.66
2023-02-12T15:06:58.100Z,101524.31
2023-02-12T15:09:32.738Z,101532.75
2023-02-12T15:12:06.121Z,101541.97
2023-02-12T15:14:37.789Z,101537.94
2023-02-12T15:17:11.811Z,101539.09
2023-02-12T15:19:45.598Z,101543.88
2023-02-12T15:22:21.414Z,101540.25
2023-02-12T15:24:49.742Z,101548.28
2023-02-12T15:27:19.696Z,101543.28
2023-02-12T15:29:50.195Z,101547.66
2023-02-12T15:32:22.805Z,101558.19
2023-02-12T15:34:53.425Z,101552.06
2023-02-12T15:37:25.906Z,101537.63
2023-02-12T15:39:57.020Z,101542.31
2023-02-12T15:42:30.739Z,101546.81
2023-02-12T15:45:22.113Z,101545.66
2023-02-12T15:48:00.355Z,101560.00
2023-02-12T15:50:31.808Z,101549.09
2023-02-12T15:53:00.102Z,101553.03
2023-02-12T15:55:34.384Z,101546.00
2023-02-12T15:58:03.201Z,101552.03
2023-02-12T16:00:37.681Z,101548.44
2023-02-12T16:03:05.691Z,101553.06
2023-02-12T16:05:35.677Z,101563.88
2023-02-12T16:08:04.169Z,101556.50
2023-02-12T16:10:32.085Z,101561.59
2023-02-12T16:13:00.148Z,101566.84
2023-02-12T16:15:31.288Z,101550.59
2023-02-12T16:18:04.104Z,101551.16
2023-02-12T16:20:32.649Z,101559.88
2023-02-12T16:23:07.387Z,101576.28
2023-02-12T16:25:35.538Z,101585.50
2023-02-12T16:28:06.127Z,101569.69
2023-02-12T16:30:38.779Z,101598.00
2023-02-12T16:33:33.908Z,101599.28
2023-02-12T16:36:02.614Z,101594.06
2023-02-12T16:38:56.609Z,101602.81
2023-02-12T16:41:27.092Z,101607.25
2023-02-12T16:44:24.556Z,101603.44
2023-02-12T16:46:55.111Z,101608.56
2023-02-12T16:49:24.840Z,101604.88
2023-02-12T16:51:53.382Z,101602.25
2023-02-12T16:54:37.402Z,101599.66
2023-02-12T16:57:05.484Z,101592.97
2023-02-12T16:59:34.561Z,101599.91
2023-02-12T17:02:04.817Z,101599.91
2023-02-12T17:04:32.819Z,101599.66
2023-02-12T17:07:00.769Z,101611.09
2023-02-12T17:09:30.004Z,101618.06
2023-02-12T17:11:59.309Z,101617.09
2023-02-12T17:14:27.310Z,101616.22
2023-02-12T17:16:55.640Z,101615.97
2023-02-12T17:19:23.659Z,101621.81
2023-02-12T17:21:51.978Z,101624.03
2023-02-12T17:24:22.659Z,101623.66
2023-02-12T17:26:51.435Z,101612.66
2023-02-12T17:29:22.128Z,101628.44
2023-02-12T17:31:51.635Z,101633.25
2023-02-12T17:34:19.503Z,101636.50
2023-02-12T17:36:47.560Z,101634.13
2023-02-12T17:39:16.755Z,101624.22
2023-02-12T17:41:45.766Z,101637.22
2023-02-12T17:44:15.091Z,101633.03
2023-02-12T17:46:45.303Z,101637.22
2023-02-12T17:49:13.326Z,101642.06
2023-02-12T17:51:42.659Z,101639.59
2023-02-12T17:54:10.629Z,101642.06
2023-02-12T17:56:38.505Z,101633.03
2023-02-12T17:59:06.448Z,101636.25
2023-02-12T18:01:36.006Z,101624.38
2023-02-12T18:04:05.311Z,101614.81
2023-02-12T18:06:33.395Z,101624.25
2023-02-12T18:09:02.606Z,101629.94
2023-02-12T18:11:32.166Z,101632.31
2023-02-12T18:14:01.004Z,101600.94
2023-02-12T18:16:31.474Z,101645.44
2023-02-12T18:19:01.408Z,101640.38
2023-02-12T18:21:30.920Z,101637.25
2023-02-12T18:23:58.874Z,101639.00
2023-02-12T18:26:29.838Z,101643.97
2023-02-12T18:28:59.383Z,101647.19
2023-02-12T18:31:28.143Z,101644.31
2023-02-12T18:33:56.858Z,101638.75
2023-02-12T18:36:25.037Z,101638.53
2023-02-12T18:38:54.752Z,101632.56
2023-02-12T18:41:25.060Z,101639.50
2023-02-12T18:43:54.742Z,101636.03
2023-02-12T18:46:24.690Z,101633.91
2023-02-12T18:48:53.612Z,101639.53
2023-02-12T18:51:23.448Z,101642.50
2023-02-12T18:53:56.843Z,101650.91
2023-02-12T18:56:24.947Z,101643.47
2023-02-12T18:58:56.733Z,101647.56
2023-02-12T19:01:25.568Z,101648.94
2023-02-12T19:03:55.258Z,101652.75
2023-02-12T19:06:23.335Z,101654.84
2023-02-12T19:08:57.081Z,101655.59
2023-02-12T19:11:25.785Z,101635.25
2023-02-12T19:13:53.725Z,101657.22
2023-02-12T19:16:23.638Z,101655.81
2023-02-12T19:18:54.659Z,101664.38
2023-02-12T19:21:26.143Z,101671.41
2023-02-12T19:23:56.373Z,101667.63
2023-02-12T19:26:24.790Z,101655.69
2023-02-12T19:28:53.072Z,101670.06
2023-02-12T19:31:23.439Z,101671.47
2023-02-12T19:33:55.498Z,101673.84
2023-02-12T19:36:23.562Z,101671.16
2023-02-12T19:38:51.597Z,101669.28
2023-02-12T19:41:23.650Z,101666.06
2023-02-12T19:43:54.613Z,101678.59
2023-02-12T19:46:22.850Z,101675.13
2023-02-12T19:48:50.817Z,101679.19
2023-02-12T19:51:20.905Z,101683.28
2023-02-12T19:53:49.581Z,101677.84
2023-02-12T19:56:17.557Z,101677.31
2023-02-12T19:58:46.996Z,101672.56
2023-02-12T20:01:17.616Z,101673.69
2023-02-12T20:03:46.901Z,101668.88
2023-02-12T20:06:17.118Z,101676.16
2023-02-12T20:08:45.027Z,101683.00
2023-02-12T20:11:14.706Z,101678.03
2023-02-12T20:13:42.732Z,101679.78
2023-02-12T20:16:15.994Z,101679.78
2023-02-12T20:18:44.483Z,101680.25
2023-02-12T20:21:14.075Z,101679.25
2023-02-12T20:23:42.134Z,101676.53
2023-02-12T20:26:14.447Z,101674.56
2023-02-12T20:28:42.828Z,101678.44
2023-02-12T20:31:14.359Z,101670.88
2023-02-12T20:33:43.067Z,101678.91
2023-02-12T20:36:12.379Z,101680.44
2023-02-12T20:38:40.965Z,101685.63
2023-02-12T20:41:10.305Z,101679.41
2023-02-12T20:43:39.331Z,101678.88
2023-02-12T20:46:09.101Z,101685.66
2023-02-12T20:48:39.664Z,101681.31
2023-02-12T20:51:09.923Z,101689.47
2023-02-12T20:53:38.205Z,101680.03
2023-02-12T20:56:08.490Z,101688.94
2023-02-12T20:58:38.315Z,101667.22
2023-02-12T21:01:07.475Z,101697.38
2023-02-12T21:03:36.123Z,101691.09
2023-02-12T21:06:06.059Z,101685.41
2023-02-12T21:08:36.002Z,101686.00
2023-02-12T21:11:09.527Z,101692.56
2023-02-12T21:13:39.036Z,101695.63
2023-02-12T21:16:09.538Z,101703.50
2023-02-12T21:18:38.317Z,101687.88
2023-02-12T21:21:09.536Z,101692.28
2023-02-12T21:23:38.243Z,101697.25
2023-02-12T21:26:08.007Z,101703.19
2023-02-12T21:28:36.576Z,101700.72
2023-02-12T21:31:09.257Z,101705.66
2023-02-12T21:33:37.724Z,101704.19
2023-02-12T21:36:10.049Z,101705.19
2023-02-12T21:38:40.235Z,101704.78
2023-02-12T21:41:10.190Z,101707.69
2023-02-12T21:43:38.817Z,101707.13
2023-02-12T21:46:07.243Z,101712.34
2023-02-12T21:48:35.444Z,101713.59
2023-02-12T21:51:04.054Z,101715.25
2023-02-12T21:53:33.602Z,101707.09
2023-02-12T21:56:03.657Z,101717.03
2023-02-12T21:58:31.589Z,101695.94
2023-02-12T22:01:07.146Z,101716.72
2023-02-12T22:03:35.009Z,101721.81
2023-02-12T22:06:03.332Z,101718.25
2023-02-12T22:08:31.352Z,101732.34
2023-02-12T22:11:02.547Z,101719.91
2023-02-12T22:13:30.967Z,101720.75
2023-02-12T22:15:59.143Z,101728.56
2023-02-12T22:18:27.303Z,101729.16
2023-02-12T22:21:01.122Z,101738.63
2023-02-12T22:23:29.167Z,101733.69
2023-02-12T22:26:04.240Z,101735.03
2023-02-12T22:28:33.651Z,101736.75
2023-02-12T22:31:06.575Z,101736.75
2023-02-12T22:33:34.585Z,101739.50
2023-02-12T22:36:05.323Z,101738.06
2023-02-12T22:38:34.180Z,101751.59
2023-02-12T22:41:02.365Z,101749.25
2023-02-12T22:43:30.458Z,101732.41
2023-02-12T22:46:00.088Z,101747.72
2023-02-12T22:48:29.609Z,101746.72
2023-02-12T22:50:59.047Z,101727.78
2023-02-12T22:53:27.683Z,101748.31
2023-02-12T22:55:55.542Z,101746.16
2023-02-12T22:58:23.415Z,101747.75
2023-02-12T23:00:51.228Z,101739.59
2023-02-12T23:03:20.434Z,101746.56
2023-02-12T23:05:48.274Z,101750.78
2023-02-12T23:08:16.156Z,101743.81
2023-02-12T23:10:44.036Z,101734.81
2023-02-12T23:13:21.254Z,101730.88
2023-02-12T23:15:56.098Z,101731.47
2023-02-12T23:18:25.755Z,101730.16
2023-02-12T23:20:54.456Z,101707.28
2023-02-12T23:23:23.288Z,101733.38
2023-02-12T23:25:53.918Z,101724.94
2023-02-12T23:28:22.764Z,101719.56
2023-02-12T23:30:51.707Z,101720.56
2023-02-12T23:33:20.359Z,101709.66
2023-02-12T23:35:50.219Z,101715.34
2023-02-12T23:38:18.707Z,101718.72
2023-02-12T23:40:48.097Z,101713.97
2023-02-12T23:43:16.506Z,101723.28
2023-02-12T23:45:45.499Z,101727.41
2023-02-12T23:48:13.806Z,101729.75
2023-02-12T23:50:42.158Z,101723.97
2023-02-12T23:53:11.460Z,101711.25
2023-02-12T23:55:40.427Z,101714.19
2023-02-12T23:58:08.810Z,101721.88
